sensor_id;sensor_type;location;lat;lon;timestamp;temperature;humidity
418;DHT22;49;48.530;9.200;2023-07-24T00:00:05;24.90;21.60
418;DHT22;49;48.530;9.200;2023-07-24T00:02:32;24.70;22.30
418;DHT22;49;48.530;9.200;2023-07-24T00:04:59;24.80;22.30
418;DHT22;49;48.530;9.200;2023-07-24T00:07:27;24.70;22.90
418;DHT22;49;48.530;9.200;2023-07-24T00:09:54;24.60;23.10
418;DHT22;49;48.530;9.200;2023-07-24T00:12:23;24.80;23.20
418;DHT22;49;48.530;9.200;2023-07-24T00:14:52;24.80;23.50
418;DHT22;49;48.530;9.200;2023-07-24T00:17:21;24.50;23.90
418;DHT22;49;48.530;9.200;2023-07-24T00:19:48;24.30;24.40
418;DHT22;49;48.530;9.200;2023-07-24T00:22:15;24.10;25.40
418;DHT22;49;48.530;9.200;2023-07-24T00:24:54;24.00;24.90
418;DHT22;49;48.530;9.200;2023-07-24T00:27:34;23.80;26.10
418;DHT22;49;48.530;9.200;2023-07-24T00:30:02;23.70;26.00
418;DHT22;49;48.530;9.200;2023-07-24T00:32:29;23.80;26.30
418;DHT22;49;48.530;9.200;2023-07-24T00:34:59;24.00;26.10
418;DHT22;49;48.530;9.200;2023-07-24T00:37:25;24.10;25.70
418;DHT22;49;48.530;9.200;2023-07-24T00:39:55;23.90;26.50
418;DHT22;49;48.530;9.200;2023-07-24T00:42:22;23.80;26.70
418;DHT22;49;48.530;9.200;2023-07-24T00:44:50;23.80;26.20
418;DHT22;49;48.530;9.200;2023-07-24T00:47:17;24.00;25.70
418;DHT22;49;48.530;9.200;2023-07-24T00:49:47;24.10;25.20
418;DHT22;49;48.530;9.200;2023-07-24T00:52:16;24.00;24.60
418;DHT22;49;48.530;9.200;2023-07-24T00:54:44;23.90;24.50
418;DHT22;49;48.530;9.200;2023-07-24T00:57:12;23.90;24.30
418;DHT22;49;48.530;9.200;2023-07-24T00:59:45;24.00;23.90
418;DHT22;49;48.530;9.200;2023-07-24T01:02:13;24.00;23.90
418;DHT22;49;48.530;9.200;2023-07-24T01:04:43;23.80;24.50
418;DHT22;49;48.530;9.200;2023-07-24T01:07:10;23.70;25.00
418;DHT22;49;48.530;9.200;2023-07-24T01:09:38;23.50;25.10
418;DHT22;49;48.530;9.200;2023-07-24T01:12:10;23.50;24.50
418;DHT22;49;48.530;9.200;2023-07-24T01:14:44;23.70;23.80
418;DHT22;49;48.530;9.200;2023-07-24T01:17:16;23.70;25.00
418;DHT22;49;48.530;9.200;2023-07-24T01:19:47;23.60;24.50
418;DHT22;49;48.530;9.200;2023-07-24T01:22:20;23.80;24.50
418;DHT22;49;48.530;9.200;2023-07-24T01:25:00;23.80;24.70
418;DHT22;49;48.530;9.200;2023-07-24T01:27:32;23.80;25.10
418;DHT22;49;48.530;9.200;2023-07-24T01:29:59;23.70;25.80
418;DHT22;49;48.530;9.200;2023-07-24T01:32:26;23.60;26.50
418;DHT22;49;48.530;9.200;2023-07-24T01:34:54;23.50;26.50
418;DHT22;49;48.530;9.200;2023-07-24T01:37:24;23.60;26.60
418;DHT22;49;48.530;9.200;2023-07-24T01:39:53;23.50;26.50
418;DHT22;49;48.530;9.200;2023-07-24T01:42:20;23.40;26.40
418;DHT22;49;48.530;9.200;2023-07-24T01:44:52;23.40;26.40
418;DHT22;49;48.530;9.200;2023-07-24T01:47:19;23.50;27.00
418;DHT22;49;48.530;9.200;2023-07-24T01:49:46;23.30;28.60
418;DHT22;49;48.530;9.200;2023-07-24T01:52:13;23.00;29.90
418;DHT22;49;48.530;9.200;2023-07-24T01:54:40;23.10;29.30
418;DHT22;49;48.530;9.200;2023-07-24T01:57:08;23.20;28.70
418;DHT22;49;48.530;9.200;2023-07-24T01:59:35;23.40;28.70
418;DHT22;49;48.530;9.200;2023-07-24T02:02:04;23.10;29.20
418;DHT22;49;48.530;9.200;2023-07-24T02:04:33;23.20;28.70
418;DHT22;49;48.530;9.200;2023-07-24T02:07:02;23.10;28.70
418;DHT22;49;48.530;9.200;2023-07-24T02:09:29;23.10;29.20
418;DHT22;49;48.530;9.200;2023-07-24T02:11:56;22.80;30.30
418;DHT22;49;48.530;9.200;2023-07-24T02:14:23;22.70;31.30
418;DHT22;49;48.530;9.200;2023-07-24T02:16:53;22.90;30.20
418;DHT22;49;48.530;9.200;2023-07-24T02:19:22;23.00;29.80
418;DHT22;49;48.530;9.200;2023-07-24T02:21:49;22.80;30.70
418;DHT22;49;48.530;9.200;2023-07-24T02:24:16;22.60;32.00
418;DHT22;49;48.530;9.200;2023-07-24T02:26:43;22.30;32.70
418;DHT22;49;48.530;9.200;2023-07-24T02:29:10;22.40;32.00
418;DHT22;49;48.530;9.200;2023-07-24T02:31:38;22.30;31.90
418;DHT22;49;48.530;9.200;2023-07-24T02:34:06;22.30;32.00
418;DHT22;49;48.530;9.200;2023-07-24T02:36:35;22.30;31.90
418;DHT22;49;48.530;9.200;2023-07-24T02:39:02;22.50;32.00
418;DHT22;49;48.530;9.200;2023-07-24T02:41:29;22.40;32.00
418;DHT22;49;48.530;9.200;2023-07-24T02:43:56;22.40;31.70
418;DHT22;49;48.530;9.200;2023-07-24T02:46:23;22.20;32.10
418;DHT22;49;48.530;9.200;2023-07-24T02:48:50;22.20;33.30
418;DHT22;49;48.530;9.200;2023-07-24T02:51:18;22.00;34.80
418;DHT22;49;48.530;9.200;2023-07-24T02:53:48;21.90;35.80
418;DHT22;49;48.530;9.200;2023-07-24T02:56:15;22.10;34.80
418;DHT22;49;48.530;9.200;2023-07-24T02:58:44;22.10;34.20
418;DHT22;49;48.530;9.200;2023-07-24T03:01:12;21.90;35.70
418;DHT22;49;48.530;9.200;2023-07-24T03:03:40;21.70;36.10
418;DHT22;49;48.530;9.200;2023-07-24T03:06:10;21.90;36.10
418;DHT22;49;48.530;9.200;2023-07-24T03:08:39;21.80;35.70
418;DHT22;49;48.530;9.200;2023-07-24T03:11:07;21.90;36.10
418;DHT22;49;48.530;9.200;2023-07-24T03:13:35;22.10;36.20
418;DHT22;49;48.530;9.200;2023-07-24T03:16:04;22.10;36.30
418;DHT22;49;48.530;9.200;2023-07-24T03:18:37;22.10;37.00
418;DHT22;49;48.530;9.200;2023-07-24T03:21:04;22.20;36.90
418;DHT22;49;48.530;9.200;2023-07-24T03:23:35;22.10;37.00
418;DHT22;49;48.530;9.200;2023-07-24T03:26:08;21.90;38.00
418;DHT22;49;48.530;9.200;2023-07-24T03:28:43;21.80;38.50
418;DHT22;49;48.530;9.200;2023-07-24T03:31:14;21.80;38.80
418;DHT22;49;48.530;9.200;2023-07-24T03:33:44;21.80;38.70
418;DHT22;49;48.530;9.200;2023-07-24T03:36:11;21.80;38.10
418;DHT22;49;48.530;9.200;2023-07-24T03:38:39;21.80;38.90
418;DHT22;49;48.530;9.200;2023-07-24T03:41:06;21.80;38.10
418;DHT22;49;48.530;9.200;2023-07-24T03:43:33;21.70;38.40
418;DHT22;49;48.530;9.200;2023-07-24T03:46:08;21.30;40.50
418;DHT22;49;48.530;9.200;2023-07-24T03:48:38;20.90;43.80
418;DHT22;49;48.530;9.200;2023-07-24T03:51:09;20.90;45.00
418;DHT22;49;48.530;9.200;2023-07-24T03:53:36;20.90;44.40
418;DHT22;49;48.530;9.200;2023-07-24T03:56:04;21.20;42.60
418;DHT22;49;48.530;9.200;2023-07-24T03:58:31;20.90;45.00
418;DHT22;49;48.530;9.200;2023-07-24T04:00:58;20.80;46.70
418;DHT22;49;48.530;9.200;2023-07-24T04:03:27;21.10;45.50
418;DHT22;49;48.530;9.200;2023-07-24T04:05:54;21.20;43.50
418;DHT22;49;48.530;9.200;2023-07-24T04:08:21;21.60;41.20
418;DHT22;49;48.530;9.200;2023-07-24T04:10:52;21.90;39.50
418;DHT22;49;48.530;9.200;2023-07-24T04:13:21;22.00;38.90
418;DHT22;49;48.530;9.200;2023-07-24T04:15:50;21.90;38.70
418;DHT22;49;48.530;9.200;2023-07-24T04:18:17;22.00;38.30
418;DHT22;49;48.530;9.200;2023-07-24T04:20:46;21.90;38.30
418;DHT22;49;48.530;9.200;2023-07-24T04:23:17;22.10;37.60
418;DHT22;49;48.530;9.200;2023-07-24T04:25:49;22.30;36.90
418;DHT22;49;48.530;9.200;2023-07-24T04:28:19;22.40;36.20
418;DHT22;49;48.530;9.200;2023-07-24T04:30:50;22.20;36.10
418;DHT22;49;48.530;9.200;2023-07-24T04:33:25;22.10;37.00
418;DHT22;49;48.530;9.200;2023-07-24T04:36:00;22.20;36.00
418;DHT22;49;48.530;9.200;2023-07-24T04:38:29;22.30;35.70
418;DHT22;49;48.530;9.200;2023-07-24T04:41:03;22.50;35.70
418;DHT22;49;48.530;9.200;2023-07-24T04:43:33;22.50;35.20
418;DHT22;49;48.530;9.200;2023-07-24T04:46:00;22.70;35.00
418;DHT22;49;48.530;9.200;2023-07-24T04:48:29;22.90;34.30
418;DHT22;49;48.530;9.200;2023-07-24T04:50:58;23.00;33.90
418;DHT22;49;48.530;9.200;2023-07-24T04:53:25;22.80;33.80
418;DHT22;49;48.530;9.200;2023-07-24T04:55:53;22.60;35.20
418;DHT22;49;48.530;9.200;2023-07-24T04:58:23;22.20;38.00
418;DHT22;49;48.530;9.200;2023-07-24T05:00:51;22.00;39.10
418;DHT22;49;48.530;9.200;2023-07-24T05:03:18;22.10;39.10
418;DHT22;49;48.530;9.200;2023-07-24T05:05:48;22.30;37.90
418;DHT22;49;48.530;9.200;2023-07-24T05:08:18;22.10;39.10
418;DHT22;49;48.530;9.200;2023-07-24T05:10:46;21.70;41.90
418;DHT22;49;48.530;9.200;2023-07-24T05:13:13;21.60;42.70
418;DHT22;49;48.530;9.200;2023-07-24T05:15:40;21.80;42.10
418;DHT22;49;48.530;9.200;2023-07-24T05:18:07;22.10;41.00
418;DHT22;49;48.530;9.200;2023-07-24T05:20:34;22.40;39.80
418;DHT22;49;48.530;9.200;2023-07-24T05:23:04;22.60;39.40
418;DHT22;49;48.530;9.200;2023-07-24T05:25:32;22.70;39.50
418;DHT22;49;48.530;9.200;2023-07-24T05:27:59;22.70;40.40
418;DHT22;49;48.530;9.200;2023-07-24T05:30:32;22.50;40.80
418;DHT22;49;48.530;9.200;2023-07-24T05:33:03;23.00;39.20
418;DHT22;49;48.530;9.200;2023-07-24T05:35:31;23.40;36.90
418;DHT22;49;48.530;9.200;2023-07-24T05:38:16;24.00;34.70
418;DHT22;49;48.530;9.200;2023-07-24T05:40:44;24.20;32.70
418;DHT22;49;48.530;9.200;2023-07-24T05:43:11;23.80;33.20
418;DHT22;49;48.530;9.200;2023-07-24T05:45:39;23.30;35.70
418;DHT22;49;48.530;9.200;2023-07-24T05:48:08;22.80;36.60
418;DHT22;49;48.530;9.200;2023-07-24T05:50:38;22.80;37.00
418;DHT22;49;48.530;9.200;2023-07-24T05:53:10;22.70;37.80
418;DHT22;49;48.530;9.200;2023-07-24T05:55:38;22.70;37.60
418;DHT22;49;48.530;9.200;2023-07-24T05:58:07;22.40;39.40
418;DHT22;49;48.530;9.200;2023-07-24T06:00:35;22.30;41.00
418;DHT22;49;48.530;9.200;2023-07-24T06:03:02;22.40;41.00
418;DHT22;49;48.530;9.200;2023-07-24T06:05:29;22.40;41.10
418;DHT22;49;48.530;9.200;2023-07-24T06:07:56;22.30;42.30
418;DHT22;49;48.530;9.200;2023-07-24T06:10:23;22.40;41.90
418;DHT22;49;48.530;9.200;2023-07-24T06:12:50;22.40;41.90
418;DHT22;49;48.530;9.200;2023-07-24T06:15:21;22.50;41.50
418;DHT22;49;48.530;9.200;2023-07-24T06:17:54;22.50;42.00
418;DHT22;49;48.530;9.200;2023-07-24T06:20:22;22.70;40.50
418;DHT22;49;48.530;9.200;2023-07-24T06:22:52;23.10;39.50
418;DHT22;49;48.530;9.200;2023-07-24T06:25:20;23.30;37.50
418;DHT22;49;48.530;9.200;2023-07-24T06:27:50;23.40;37.00
418;DHT22;49;48.530;9.200;2023-07-24T06:30:22;23.30;37.50
418;DHT22;49;48.530;9.200;2023-07-24T06:33:00;23.60;35.10
418;DHT22;49;48.530;9.200;2023-07-24T06:35:33;23.80;33.80
418;DHT22;49;48.530;9.200;2023-07-24T06:38:02;24.20;33.10
418;DHT22;49;48.530;9.200;2023-07-24T06:40:31;24.30;32.50
418;DHT22;49;48.530;9.200;2023-07-24T06:46:09;24.50;30.50
418;DHT22;49;48.530;9.200;2023-07-24T06:48:55;24.80;29.50
418;DHT22;49;48.530;9.200;2023-07-24T06:51:28;24.90;29.30
418;DHT22;49;48.530;9.200;2023-07-24T06:54:13;25.00;28.80
418;DHT22;49;48.530;9.200;2023-07-24T06:56:54;25.20;28.40
418;DHT22;49;48.530;9.200;2023-07-24T06:59:34;25.10;28.60
418;DHT22;49;48.530;9.200;2023-07-24T07:02:08;25.30;28.70
418;DHT22;49;48.530;9.200;2023-07-24T07:04:39;25.60;27.80
418;DHT22;49;48.530;9.200;2023-07-24T07:07:27;25.50;27.80
418;DHT22;49;48.530;9.200;2023-07-24T07:10:11;25.70;27.90
418;DHT22;49;48.530;9.200;2023-07-24T07:12:51;25.90;28.00
418;DHT22;49;48.530;9.200;2023-07-24T07:15:18;26.00;27.40
418;DHT22;49;48.530;9.200;2023-07-24T07:17:51;25.80;27.90
418;DHT22;49;48.530;9.200;2023-07-24T07:23:08;25.40;29.20
418;DHT22;49;48.530;9.200;2023-07-24T07:25:37;25.60;29.90
418;DHT22;49;48.530;9.200;2023-07-24T07:28:25;26.00;29.80
418;DHT22;49;48.530;9.200;2023-07-24T07:31:06;26.90;26.20
418;DHT22;49;48.530;9.200;2023-07-24T07:33:43;27.60;24.40
418;DHT22;49;48.530;9.200;2023-07-24T07:36:12;28.10;22.40
418;DHT22;49;48.530;9.200;2023-07-24T07:38:55;27.90;23.60
418;DHT22;49;48.530;9.200;2023-07-24T07:41:30;28.20;22.10
418;DHT22;49;48.530;9.200;2023-07-24T07:44:08;28.00;22.80
418;DHT22;49;48.530;9.200;2023-07-24T07:46:54;28.20;23.10
418;DHT22;49;48.530;9.200;2023-07-24T07:49:28;28.40;22.10
418;DHT22;49;48.530;9.200;2023-07-24T07:52:06;29.00;20.90
418;DHT22;49;48.530;9.200;2023-07-24T07:54:34;29.40;19.70
418;DHT22;49;48.530;9.200;2023-07-24T07:57:08;29.50;19.50
418;DHT22;49;48.530;9.200;2023-07-24T07:59:43;29.40;20.10
418;DHT22;49;48.530;9.200;2023-07-24T08:02:24;29.10;20.40
418;DHT22;49;48.530;9.200;2023-07-24T08:04:55;28.80;21.10
418;DHT22;49;48.530;9.200;2023-07-24T08:07:24;28.50;22.40
418;DHT22;49;48.530;9.200;2023-07-24T08:09:51;28.20;23.20
418;DHT22;49;48.530;9.200;2023-07-24T08:12:26;27.70;24.10
418;DHT22;49;48.530;9.200;2023-07-24T08:14:53;27.80;25.30
418;DHT22;49;48.530;9.200;2023-07-24T08:17:30;27.80;25.00
418;DHT22;49;48.530;9.200;2023-07-24T08:20:03;28.00;24.00
418;DHT22;49;48.530;9.200;2023-07-24T08:22:33;28.20;23.40
418;DHT22;49;48.530;9.200;2023-07-24T08:25:02;28.20;23.10
418;DHT22;49;48.530;9.200;2023-07-24T08:27:29;28.00;23.10
418;DHT22;49;48.530;9.200;2023-07-24T08:30:05;27.70;22.90
418;DHT22;49;48.530;9.200;2023-07-24T08:32:34;27.70;22.90
418;DHT22;49;48.530;9.200;2023-07-24T08:35:06;27.40;24.00
418;DHT22;49;48.530;9.200;2023-07-24T08:37:42;27.40;23.70
418;DHT22;49;48.530;9.200;2023-07-24T08:40:19;27.40;24.10
418;DHT22;49;48.530;9.200;2023-07-24T08:43:09;27.60;23.70
418;DHT22;49;48.530;9.200;2023-07-24T08:45:45;27.40;24.10
418;DHT22;49;48.530;9.200;2023-07-24T08:48:18;27.50;24.30
418;DHT22;49;48.530;9.200;2023-07-24T08:51:00;27.30;26.10
418;DHT22;49;48.530;9.200;2023-07-24T08:53:33;27.50;27.80
418;DHT22;49;48.530;9.200;2023-07-24T08:56:12;27.00;28.60
418;DHT22;49;48.530;9.200;2023-07-24T08:58:47;26.90;29.20
418;DHT22;49;48.530;9.200;2023-07-24T09:01:17;26.90;32.40
418;DHT22;49;48.530;9.200;2023-07-24T09:04:03;26.60;31.50
418;DHT22;49;48.530;9.200;2023-07-24T09:06:48;26.70;32.80
418;DHT22;49;48.530;9.200;2023-07-24T09:09:19;26.90;35.30
418;DHT22;49;48.530;9.200;2023-07-24T09:11:54;27.70;33.20
418;DHT22;49;48.530;9.200;2023-07-24T09:14:27;28.00;33.00
418;DHT22;49;48.530;9.200;2023-07-24T09:17:11;28.50;31.10
418;DHT22;49;48.530;9.200;2023-07-24T09:19:43;28.60;32.60
418;DHT22;49;48.530;9.200;2023-07-24T09:22:33;29.00;31.70
418;DHT22;49;48.530;9.200;2023-07-24T09:25:06;29.30;29.80
418;DHT22;49;48.530;9.200;2023-07-24T09:27:39;29.10;29.30
418;DHT22;49;48.530;9.200;2023-07-24T09:30:29;28.80;28.30
418;DHT22;49;48.530;9.200;2023-07-24T09:32:59;28.30;27.60
418;DHT22;49;48.530;9.200;2023-07-24T09:35:30;28.40;28.70
418;DHT22;49;48.530;9.200;2023-07-24T09:38:15;28.70;29.50
418;DHT22;49;48.530;9.200;2023-07-24T09:41:01;28.00;29.60
418;DHT22;49;48.530;9.200;2023-07-24T09:43:42;28.10;31.10
418;DHT22;49;48.530;9.200;2023-07-24T09:46:31;28.20;29.30
418;DHT22;49;48.530;9.200;2023-07-24T09:49:16;28.10;31.30
418;DHT22;49;48.530;9.200;2023-07-24T09:52:07;28.30;31.70
418;DHT22;49;48.530;9.200;2023-07-24T09:58:12;28.10;32.80
418;DHT22;49;48.530;9.200;2023-07-24T10:00:54;27.60;33.60
418;DHT22;49;48.530;9.200;2023-07-24T10:03:31;27.10;37.00
418;DHT22;49;48.530;9.200;2023-07-24T10:06:11;27.00;38.40
418;DHT22;49;48.530;9.200;2023-07-24T10:08:57;27.30;36.90
418;DHT22;49;48.530;9.200;2023-07-24T10:11:29;27.50;37.00
418;DHT22;49;48.530;9.200;2023-07-24T10:14:01;27.30;37.30
418;DHT22;49;48.530;9.200;2023-07-24T10:16:45;26.90;38.90
418;DHT22;49;48.530;9.200;2023-07-24T10:19:21;26.60;44.10
418;DHT22;49;48.530;9.200;2023-07-24T10:21:53;25.90;46.40
418;DHT22;49;48.530;9.200;2023-07-24T10:24:29;25.70;50.40
418;DHT22;49;48.530;9.200;2023-07-24T10:27:09;25.60;53.60
418;DHT22;49;48.530;9.200;2023-07-24T10:29:38;26.00;51.40
418;DHT22;49;48.530;9.200;2023-07-24T10:32:18;26.30;50.00
418;DHT22;49;48.530;9.200;2023-07-24T10:34:45;26.00;47.70
418;DHT22;49;48.530;9.200;2023-07-24T10:37:34;25.90;49.40
418;DHT22;49;48.530;9.200;2023-07-24T10:40:05;25.10;56.70
418;DHT22;49;48.530;9.200;2023-07-24T10:42:37;24.80;69.20
418;DHT22;49;48.530;9.200;2023-07-24T10:45:07;24.30;93.00
418;DHT22;49;48.530;9.200;2023-07-24T10:47:37;24.00;99.90
418;DHT22;49;48.530;9.200;2023-07-24T10:50:06;23.80;99.90
418;DHT22;49;48.530;9.200;2023-07-24T10:52:34;23.70;99.90
418;DHT22;49;48.530;9.200;2023-07-24T10:55:06;23.60;99.90
418;DHT22;49;48.530;9.200;2023-07-24T10:57:38;23.90;99.90
418;DHT22;49;48.530;9.200;2023-07-24T11:00:07;24.00;99.90
418;DHT22;49;48.530;9.200;2023-07-24T11:02:34;24.30;99.90
418;DHT22;49;48.530;9.200;2023-07-24T11:05:14;23.90;99.90
418;DHT22;49;48.530;9.200;2023-07-24T11:07:47;23.60;99.90
418;DHT22;49;48.530;9.200;2023-07-24T11:10:15;23.60;99.90
418;DHT22;49;48.530;9.200;2023-07-24T11:12:45;23.50;99.90
418;DHT22;49;48.530;9.200;2023-07-24T11:15:13;23.70;99.90
418;DHT22;49;48.530;9.200;2023-07-24T11:17:41;23.70;99.90
418;DHT22;49;48.530;9.200;2023-07-24T11:20:10;23.60;99.90
418;DHT22;49;48.530;9.200;2023-07-24T11:22:42;23.90;99.90
418;DHT22;49;48.530;9.200;2023-07-24T11:25:11;24.20;99.90
418;DHT22;49;48.530;9.200;2023-07-24T11:27:39;24.10;99.90
418;DHT22;49;48.530;9.200;2023-07-24T11:30:12;24.20;99.90
418;DHT22;49;48.530;9.200;2023-07-24T11:32:46;24.50;99.90
418;DHT22;49;48.530;9.200;2023-07-24T11:35:13;25.10;99.90
418;DHT22;49;48.530;9.200;2023-07-24T11:37:40;25.70;99.90
418;DHT22;49;48.530;9.200;2023-07-24T11:40:08;26.00;99.90
418;DHT22;49;48.530;9.200;2023-07-24T11:42:39;26.30;99.90
418;DHT22;49;48.530;9.200;2023-07-24T11:45:10;26.60;99.90
418;DHT22;49;48.530;9.200;2023-07-24T11:47:48;26.60;99.90
418;DHT22;49;48.530;9.200;2023-07-24T11:50:19;27.10;99.90
418;DHT22;49;48.530;9.200;2023-07-24T11:52:51;27.40;97.50
418;DHT22;49;48.530;9.200;2023-07-24T11:55:31;27.20;92.60
418;DHT22;49;48.530;9.200;2023-07-24T11:58:00;27.40;95.20
418;DHT22;49;48.530;9.200;2023-07-24T12:00:36;27.50;95.90
418;DHT22;49;48.530;9.200;2023-07-24T12:03:02;27.30;97.40
418;DHT22;49;48.530;9.200;2023-07-24T12:05:38;27.20;98.10
418;DHT22;49;48.530;9.200;2023-07-24T12:08:06;27.10;94.90
418;DHT22;49;48.530;9.200;2023-07-24T12:10:36;27.20;90.90
418;DHT22;49;48.530;9.200;2023-07-24T12:13:05;26.90;90.00
418;DHT22;49;48.530;9.200;2023-07-24T12:15:39;27.50;94.00
418;DHT22;49;48.530;9.200;2023-07-24T12:18:06;27.70;79.90
418;DHT22;49;48.530;9.200;2023-07-24T12:20:36;27.40;80.90
418;DHT22;49;48.530;9.200;2023-07-24T12:23:03;27.00;75.90
418;DHT22;49;48.530;9.200;2023-07-24T12:25:32;26.70;74.40
418;DHT22;49;48.530;9.200;2023-07-24T12:28:01;27.00;74.70
418;DHT22;49;48.530;9.200;2023-07-24T12:30:28;27.10;72.50
418;DHT22;49;48.530;9.200;2023-07-24T12:32:58;27.70;65.20
418;DHT22;49;48.530;9.200;2023-07-24T12:35:26;28.00;62.10
418;DHT22;49;48.530;9.200;2023-07-24T12:37:53;28.30;62.20
418;DHT22;49;48.530;9.200;2023-07-24T12:40:20;28.70;56.90
418;DHT22;49;48.530;9.200;2023-07-24T12:42:47;28.60;56.70
418;DHT22;49;48.530;9.200;2023-07-24T12:45:19;29.20;55.40
418;DHT22;49;48.530;9.200;2023-07-24T12:47:51;29.30;49.50
418;DHT22;49;48.530;9.200;2023-07-24T12:50:24;28.70;50.20
418;DHT22;49;48.530;9.200;2023-07-24T12:53:04;28.20;54.80
418;DHT22;49;48.530;9.200;2023-07-24T12:55:31;27.80;59.00
418;DHT22;49;48.530;9.200;2023-07-24T12:58:01;28.20;57.80
418;DHT22;49;48.530;9.200;2023-07-24T13:00:34;28.90;53.90
418;DHT22;49;48.530;9.200;2023-07-24T13:03:03;29.30;51.00
418;DHT22;49;48.530;9.200;2023-07-24T13:05:34;28.90;46.40
418;DHT22;49;48.530;9.200;2023-07-24T13:08:04;27.80;49.10
418;DHT22;49;48.530;9.200;2023-07-24T13:10:35;27.70;53.60
418;DHT22;49;48.530;9.200;2023-07-24T13:13:04;27.90;56.10
418;DHT22;49;48.530;9.200;2023-07-24T13:15:34;27.90;51.50
418;DHT22;49;48.530;9.200;2023-07-24T13:18:10;27.50;53.10
418;DHT22;49;48.530;9.200;2023-07-24T13:20:43;27.20;47.50
418;DHT22;49;48.530;9.200;2023-07-24T13:23:13;27.20;44.60
418;DHT22;49;48.530;9.200;2023-07-24T13:25:44;27.40;45.80
418;DHT22;49;48.530;9.200;2023-07-24T13:28:14;27.80;42.70
418;DHT22;49;48.530;9.200;2023-07-24T13:30:47;27.50;43.50
418;DHT22;49;48.530;9.200;2023-07-24T13:33:18;26.80;44.70
418;DHT22;49;48.530;9.200;2023-07-24T13:35:52;26.90;45.20
418;DHT22;49;48.530;9.200;2023-07-24T13:38:21;26.60;50.80
418;DHT22;49;48.530;9.200;2023-07-24T13:40:54;26.50;54.10
418;DHT22;49;48.530;9.200;2023-07-24T13:43:27;26.00;58.90
418;DHT22;49;48.530;9.200;2023-07-24T13:45:56;25.70;58.30
418;DHT22;49;48.530;9.200;2023-07-24T13:48:24;25.70;58.00
418;DHT22;49;48.530;9.200;2023-07-24T13:51:06;25.60;58.10
418;DHT22;49;48.530;9.200;2023-07-24T13:53:33;25.90;55.80
418;DHT22;49;48.530;9.200;2023-07-24T13:56:05;26.10;56.30
418;DHT22;49;48.530;9.200;2023-07-24T13:58:32;26.40;53.40
418;DHT22;49;48.530;9.200;2023-07-24T14:01:01;26.50;51.80
418;DHT22;49;48.530;9.200;2023-07-24T14:03:31;26.50;52.20
418;DHT22;49;48.530;9.200;2023-07-24T14:06:02;26.90;52.50
418;DHT22;49;48.530;9.200;2023-07-24T14:08:31;27.20;48.50
418;DHT22;49;48.530;9.200;2023-07-24T14:11:01;27.10;52.10
418;DHT22;49;48.530;9.200;2023-07-24T14:13:28;26.80;54.70
418;DHT22;49;48.530;9.200;2023-07-24T14:15:58;26.20;55.40
418;DHT22;49;48.530;9.200;2023-07-24T14:18:27;25.90;57.60
418;DHT22;49;48.530;9.200;2023-07-24T14:20:57;25.00;71.90
418;DHT22;49;48.530;9.200;2023-07-24T14:23:40;25.00;72.90
418;DHT22;49;48.530;9.200;2023-07-24T14:26:16;25.00;83.90
418;DHT22;49;48.530;9.200;2023-07-24T14:28:46;24.90;86.50
418;DHT22;49;48.530;9.200;2023-07-24T14:31:19;25.10;85.80
418;DHT22;49;48.530;9.200;2023-07-24T14:33:49;24.80;92.60
418;DHT22;49;48.530;9.200;2023-07-24T14:36:19;24.80;90.10
418;DHT22;49;48.530;9.200;2023-07-24T14:38:50;24.50;92.40
418;DHT22;49;48.530;9.200;2023-07-24T14:41:17;24.60;90.10
418;DHT22;49;48.530;9.200;2023-07-24T14:43:44;24.40;90.00
418;DHT22;49;48.530;9.200;2023-07-24T14:46:15;24.30;91.10
418;DHT22;49;48.530;9.200;2023-07-24T14:48:45;23.90;92.60
418;DHT22;49;48.530;9.200;2023-07-24T14:51:22;24.00;99.90
418;DHT22;49;48.530;9.200;2023-07-24T14:53:54;24.20;95.70
418;DHT22;49;48.530;9.200;2023-07-24T14:56:27;24.10;99.90
418;DHT22;49;48.530;9.200;2023-07-24T14:58:57;24.20;99.00
418;DHT22;49;48.530;9.200;2023-07-24T15:01:29;24.10;99.30
418;DHT22;49;48.530;9.200;2023-07-24T15:03:57;24.20;97.50
418;DHT22;49;48.530;9.200;2023-07-24T15:06:31;24.50;94.90
418;DHT22;49;48.530;9.200;2023-07-24T15:09:03;24.70;91.60
418;DHT22;49;48.530;9.200;2023-07-24T15:11:32;24.60;92.20
418;DHT22;49;48.530;9.200;2023-07-24T15:14:03;24.40;93.40
418;DHT22;49;48.530;9.200;2023-07-24T15:16:32;24.70;90.80
418;DHT22;49;48.530;9.200;2023-07-24T15:18:59;24.80;87.00
418;DHT22;49;48.530;9.200;2023-07-24T15:21:29;25.00;83.20
418;DHT22;49;48.530;9.200;2023-07-24T15:23:59;25.10;82.20
418;DHT22;49;48.530;9.200;2023-07-24T15:26:28;24.80;81.20
418;DHT22;49;48.530;9.200;2023-07-24T15:28:55;24.80;83.10
418;DHT22;49;48.530;9.200;2023-07-24T15:31:22;24.60;83.50
418;DHT22;49;48.530;9.200;2023-07-24T15:33:49;24.70;83.80
418;DHT22;49;48.530;9.200;2023-07-24T15:36:16;25.00;77.90
418;DHT22;49;48.530;9.200;2023-07-24T15:38:46;25.80;70.30
418;DHT22;49;48.530;9.200;2023-07-24T15:41:13;25.90;66.50
418;DHT22;49;48.530;9.200;2023-07-24T15:43:44;26.30;63.30
418;DHT22;49;48.530;9.200;2023-07-24T15:46:11;26.50;59.20
418;DHT22;49;48.530;9.200;2023-07-24T15:48:40;26.60;56.50
418;DHT22;49;48.530;9.200;2023-07-24T15:51:14;27.00;52.70
418;DHT22;49;48.530;9.200;2023-07-24T15:53:41;27.00;52.10
418;DHT22;49;48.530;9.200;2023-07-24T15:56:11;26.90;51.80
418;DHT22;49;48.530;9.200;2023-07-24T15:58:43;27.30;48.60
418;DHT22;49;48.530;9.200;2023-07-24T16:01:13;27.50;47.40
418;DHT22;49;48.530;9.200;2023-07-24T16:03:40;27.90;45.40
418;DHT22;49;48.530;9.200;2023-07-24T16:06:08;27.90;43.80
418;DHT22;49;48.530;9.200;2023-07-24T16:08:36;27.50;45.10
418;DHT22;49;48.530;9.200;2023-07-24T16:11:03;27.20;46.70
418;DHT22;49;48.530;9.200;2023-07-24T16:13:45;27.00;46.50
418;DHT22;49;48.530;9.200;2023-07-24T16:16:21;26.90;47.60
418;DHT22;49;48.530;9.200;2023-07-24T16:19:10;26.40;48.90
418;DHT22;49;48.530;9.200;2023-07-24T16:21:37;26.20;51.50
418;DHT22;49;48.530;9.200;2023-07-24T16:24:07;26.40;51.30
418;DHT22;49;48.530;9.200;2023-07-24T16:26:35;26.90;46.60
418;DHT22;49;48.530;9.200;2023-07-24T16:29:06;26.20;49.90
418;DHT22;49;48.530;9.200;2023-07-24T16:31:33;26.10;50.20
418;DHT22;49;48.530;9.200;2023-07-24T16:34:00;26.40;49.30
418;DHT22;49;48.530;9.200;2023-07-24T16:36:28;25.50;51.40
418;DHT22;49;48.530;9.200;2023-07-24T16:38:58;24.70;59.30
418;DHT22;49;48.530;9.200;2023-07-24T16:41:31;24.80;58.40
418;DHT22;49;48.530;9.200;2023-07-24T16:43:58;25.00;57.50
418;DHT22;49;48.530;9.200;2023-07-24T16:46:27;24.60;61.50
418;DHT22;49;48.530;9.200;2023-07-24T16:48:54;24.80;62.00
418;DHT22;49;48.530;9.200;2023-07-24T16:51:21;25.00;60.60
418;DHT22;49;48.530;9.200;2023-07-24T16:53:50;25.30;56.40
418;DHT22;49;48.530;9.200;2023-07-24T16:56:18;25.60;54.40
418;DHT22;49;48.530;9.200;2023-07-24T16:58:45;25.40;54.40
418;DHT22;49;48.530;9.200;2023-07-24T17:01:16;25.30;56.10
418;DHT22;49;48.530;9.200;2023-07-24T17:03:47;25.20;56.30
418;DHT22;49;48.530;9.200;2023-07-24T17:06:17;25.00;57.80
418;DHT22;49;48.530;9.200;2023-07-24T17:08:46;24.80;58.30
418;DHT22;49;48.530;9.200;2023-07-24T17:11:17;24.90;57.90
418;DHT22;49;48.530;9.200;2023-07-24T17:13:44;24.70;60.70
418;DHT22;49;48.530;9.200;2023-07-24T17:16:15;24.50;62.80
418;DHT22;49;48.530;9.200;2023-07-24T17:18:46;24.80;60.70
418;DHT22;49;48.530;9.200;2023-07-24T17:21:19;25.00;60.70
418;DHT22;49;48.530;9.200;2023-07-24T17:23:48;25.20;58.80
418;DHT22;49;48.530;9.200;2023-07-24T17:26:23;25.30;56.40